Аэропорт: Иркутск. Иркутск

ICAO: UIII

METAR:
2019/05/26 14:00
UIII 261400Z 17004MPS CAVOK 13/M01 Q1016 R12/CLRD60 NOSIG RMK QFE719/0959
METAR:
2019/05/26 12:24
TAF UIII 261100Z 2612/2712 16005MPS CAVOK